createdAt,value
2018-01-26T00:00:06.168Z,9.99
2018-01-26T00:02:34.511Z,10.02
2018-01-26T00:05:02.841Z,10.19
2018-01-26T00:07:31.172Z,10.37
2018-01-26T00:09:59.520Z,10.34
2018-01-26T00:12:27.824Z,10.45
2018-01-26T00:14:56.136Z,10.29
2018-01-26T00:17:24.703Z,10.29
2018-01-26T00:19:53.037Z,10.38
2018-01-26T00:22:21.338Z,10.42
2018-01-26T00:24:49.708Z,10.52
2018-01-26T00:27:18.044Z,10.62
2018-01-26T00:29:46.341Z,10.63
2018-01-26T00:32:14.699Z,10.54
2018-01-26T00:34:43.015Z,10.52
2018-01-26T00:37:11.351Z,10.44
2018-01-26T00:39:39.800Z,10.25
2018-01-26T00:42:08.146Z,10.13
2018-01-26T00:44:37.273Z,10.13
2018-01-26T00:47:05.620Z,10.14
2018-01-26T00:49:33.912Z,10.11
2018-01-26T00:52:02.238Z,10.03
2018-01-26T00:54:30.612Z,10.19
2018-01-26T00:56:59.691Z,10.21
2018-01-26T00:59:28.064Z,10.31
2018-01-26T01:01:56.602Z,10.35
2018-01-26T01:04:24.928Z,10.34
2018-01-26T01:06:54.016Z,10.40
2018-01-26T01:09:22.358Z,10.49
2018-01-26T01:11:50.671Z,10.64
2018-01-26T01:14:18.972Z,10.65
2018-01-26T01:16:48.131Z,10.66
2018-01-26T01:19:16.454Z,10.66
2018-01-26T01:21:45.564Z,10.57
2018-01-26T01:24:14.184Z,10.45
2018-01-26T01:26:42.513Z,10.51
2018-01-26T01:29:11.615Z,10.35
2018-01-26T01:31:40.745Z,10.49
2018-01-26T01:34:09.063Z,10.30
2018-01-26T01:36:37.405Z,10.42
2018-01-26T01:39:05.774Z,10.37
2018-01-26T01:41:34.067Z,10.38
2018-01-26T01:44:02.393Z,10.48
2018-01-26T01:46:31.285Z,10.57
2018-01-26T01:49:17.688Z,10.50
2018-01-26T01:51:46.816Z,10.50
2018-01-26T01:54:15.175Z,10.43
2018-01-26T01:56:43.519Z,10.40
2018-01-26T01:59:11.866Z,10.45
2018-01-26T02:01:40.160Z,10.45
2018-01-26T02:04:08.478Z,10.40
2018-01-26T02:06:37.827Z,10.55
2018-01-26T02:09:06.184Z,10.51
2018-01-26T02:11:34.524Z,10.28
2018-01-26T02:14:02.901Z,10.28
2018-01-26T02:16:31.218Z,10.30
2018-01-26T02:18:59.517Z,10.41
2018-01-26T02:21:27.908Z,10.46
2018-01-26T02:23:56.268Z,10.27
2018-01-26T02:26:24.593Z,10.10
2018-01-26T02:28:53.512Z,10.27
2018-01-26T02:31:22.611Z,10.41
2018-01-26T02:33:50.924Z,10.35
2018-01-26T02:36:19.350Z,10.34
2018-01-26T02:38:47.842Z,10.29
2018-01-26T02:41:16.158Z,10.26
2018-01-26T02:43:44.540Z,10.07
2018-01-26T02:46:12.877Z,10.12
2018-01-26T02:48:41.199Z,10.25
2018-01-26T02:51:10.531Z,10.42
2018-01-26T02:53:38.833Z,10.42
2018-01-26T02:56:07.154Z,10.35
2018-01-26T02:58:35.486Z,10.30
2018-01-26T03:01:03.796Z,10.21
2018-01-26T03:03:32.108Z,10.31
2018-01-26T03:06:00.466Z,10.15
2018-01-26T03:08:28.832Z,10.00
2018-01-26T03:10:57.168Z,10.10
2018-01-26T03:13:25.893Z,9.96
2018-01-26T03:15:54.250Z,10.06
2018-01-26T03:18:22.564Z,10.11
2018-01-26T03:20:50.900Z,10.16
2018-01-26T03:23:19.992Z,10.14
2018-01-26T03:25:49.099Z,10.21
2018-01-26T03:28:18.199Z,10.11
2018-01-26T03:30:46.480Z,9.97
2018-01-26T03:33:14.799Z,10.09
2018-01-26T03:35:43.313Z,10.18
2018-01-26T03:38:11.632Z,10.32
2018-01-26T03:40:39.992Z,10.16
2018-01-26T03:43:09.088Z,10.21
2018-01-26T03:45:38.175Z,10.24
2018-01-26T03:48:07.271Z,10.30
2018-01-26T03:50:36.377Z,10.21
2018-01-26T03:53:05.462Z,10.18
2018-01-26T03:55:34.568Z,10.41
2018-01-26T03:58:04.173Z,10.56
2018-01-26T04:00:33.286Z,10.57
2018-01-26T04:03:01.625Z,10.48
2018-01-26T04:05:29.937Z,10.49
2018-01-26T04:07:58.245Z,10.38
2018-01-26T04:10:26.569Z,10.38
2018-01-26T04:12:54.957Z,10.38
2018-01-26T04:15:24.090Z,10.51
2018-01-26T04:17:52.418Z,10.63
2018-01-26T04:20:20.987Z,10.58
2018-01-26T04:22:49.292Z,10.49
2018-01-26T04:25:18.375Z,10.41
2018-01-26T04:27:46.696Z,10.41
2018-01-26T04:30:15.026Z,10.41
2018-01-26T04:32:43.363Z,10.56
2018-01-26T04:35:11.740Z,10.51
2018-01-26T04:37:40.072Z,10.40
2018-01-26T04:40:08.357Z,10.45
2018-01-26T04:42:37.251Z,10.41
2018-01-26T04:45:05.540Z,10.48
2018-01-26T04:47:33.871Z,10.42
2018-01-26T04:50:02.976Z,10.49
2018-01-26T04:52:31.312Z,10.46
2018-01-26T04:54:59.621Z,10.39
2018-01-26T04:57:28.222Z,10.27
2018-01-26T04:59:56.590Z,10.34
2018-01-26T05:02:24.963Z,10.35
2018-01-26T05:04:53.780Z,10.34
2018-01-26T05:07:22.174Z,10.44
2018-01-26T05:09:50.515Z,10.51
2018-01-26T05:12:18.861Z,10.59
2018-01-26T05:14:47.182Z,10.66
2018-01-26T05:17:15.526Z,10.57
2018-01-26T05:19:43.943Z,10.57
2018-01-26T05:22:12.380Z,10.44
2018-01-26T05:24:40.742Z,10.36
2018-01-26T05:27:09.487Z,10.47
2018-01-26T05:29:37.870Z,10.29
2018-01-26T05:32:06.238Z,10.31
2018-01-26T05:34:34.730Z,10.47
2018-01-26T05:37:03.199Z,10.58
2018-01-26T05:39:31.581Z,10.56
2018-01-26T05:41:59.939Z,10.49
2018-01-26T05:44:28.260Z,10.60
2018-01-26T05:46:56.604Z,10.62
2018-01-26T05:49:26.273Z,10.46
2018-01-26T05:51:54.605Z,10.48
2018-01-26T05:54:22.923Z,10.61
2018-01-26T05:56:52.024Z,10.71
2018-01-26T05:59:21.123Z,10.73
2018-01-26T06:01:49.601Z,10.49
2018-01-26T06:04:17.934Z,10.65
2018-01-26T06:06:46.260Z,10.71
2018-01-26T06:09:14.579Z,10.74
2018-01-26T06:11:43.445Z,10.79
2018-01-26T06:14:11.841Z,10.78
2018-01-26T06:16:40.156Z,10.72
2018-01-26T06:19:08.499Z,10.37
2018-01-26T06:21:36.840Z,10.19
2018-01-26T06:24:05.922Z,10.13
2018-01-26T06:26:35.027Z,10.39
2018-01-26T06:29:04.104Z,10.24
2018-01-26T06:31:32.401Z,10.19
2018-01-26T06:34:01.989Z,9.98
2018-01-26T06:36:30.337Z,10.13
2018-01-26T06:38:58.674Z,10.27
2018-01-26T06:41:27.000Z,10.39
2018-01-26T06:43:55.300Z,10.25
2018-01-26T06:46:23.660Z,10.39
2018-01-26T06:48:52.014Z,10.32
2018-01-26T06:51:20.367Z,10.39
2018-01-26T06:53:49.492Z,10.28
2018-01-26T06:56:18.304Z,10.31
2018-01-26T06:58:46.607Z,10.33
2018-01-26T07:01:14.942Z,10.41
2018-01-26T07:03:44.236Z,10.24
2018-01-26T07:06:12.557Z,10.27
2018-01-26T07:08:40.887Z,10.44
2018-01-26T07:11:09.223Z,10.44
2018-01-26T07:13:37.557Z,10.37
2018-01-26T07:16:05.879Z,10.24
2018-01-26T07:18:34.432Z,10.34
2018-01-26T07:21:02.791Z,10.35
2018-01-26T07:23:31.151Z,10.03
2018-01-26T07:25:59.522Z,10.33
2018-01-26T07:28:27.842Z,10.22
2018-01-26T07:30:56.937Z,10.29
2018-01-26T07:33:25.271Z,10.39
2018-01-26T07:35:53.681Z,10.25
2018-01-26T07:38:22.000Z,10.38
2018-01-26T07:40:50.393Z,10.43
2018-01-26T07:43:19.480Z,10.35
2018-01-26T07:45:48.600Z,10.26
2018-01-26T07:48:16.967Z,10.20
2018-01-26T07:50:46.068Z,10.12
2018-01-26T07:53:15.162Z,10.14
2018-01-26T07:55:44.347Z,10.22
2018-01-26T07:58:13.431Z,10.32
2018-01-26T08:00:41.800Z,10.32
2018-01-26T08:03:10.892Z,10.43
2018-01-26T08:05:40.030Z,10.56
2018-01-26T08:08:09.126Z,10.53
2018-01-26T08:10:38.255Z,10.63
2018-01-26T08:13:07.034Z,10.57
2018-01-26T08:15:35.345Z,10.47
2018-01-26T08:18:03.707Z,10.51
2018-01-26T08:20:32.075Z,10.57
2018-01-26T08:23:00.391Z,10.56
2018-01-26T08:25:29.122Z,10.52
2018-01-26T08:27:58.207Z,10.62
2018-01-26T08:30:27.317Z,10.65
2018-01-26T08:32:55.644Z,10.86
2018-01-26T08:35:23.959Z,10.72
2018-01-26T08:37:52.269Z,10.66
2018-01-26T08:40:20.606Z,10.83
2018-01-26T08:42:48.927Z,10.96
2018-01-26T08:45:17.275Z,10.99
2018-01-26T08:47:45.903Z,11.03
2018-01-26T08:50:14.228Z,11.25
2018-01-26T08:52:43.341Z,11.25
2018-01-26T08:58:17.560Z,11.22
2018-01-26T09:00:45.908Z,11.48
2018-01-26T09:03:14.260Z,11.60
2018-01-26T09:05:42.591Z,11.75
2018-01-26T09:08:11.499Z,11.80
2018-01-26T09:10:40.575Z,11.81
2018-01-26T09:13:09.133Z,11.89
2018-01-26T09:15:38.368Z,11.93
2018-01-26T09:18:07.456Z,11.89
2018-01-26T09:20:35.807Z,11.71
2018-01-26T09:23:05.242Z,11.49
2018-01-26T09:25:33.581Z,11.36
2018-01-26T09:28:02.699Z,11.59
2018-01-26T09:30:31.954Z,11.55
2018-01-26T09:33:00.264Z,11.83
2018-01-26T09:35:29.359Z,11.97
2018-01-26T09:37:57.735Z,11.64
2018-01-26T09:40:26.080Z,11.31
2018-01-26T09:42:54.460Z,11.63
2018-01-26T09:45:22.859Z,11.85
2018-01-26T09:47:51.173Z,11.91
2018-01-26T09:50:19.529Z,11.94
2018-01-26T09:52:48.096Z,12.02
2018-01-26T09:55:16.518Z,12.07
2018-01-26T09:57:44.865Z,11.99
2018-01-26T10:00:13.275Z,12.13
2018-01-26T10:02:41.612Z,11.91
2018-01-26T10:05:09.948Z,11.87
2018-01-26T10:07:39.084Z,11.94
2018-01-26T10:10:08.484Z,12.16
2018-01-26T10:12:36.814Z,12.37
2018-01-26T10:15:05.602Z,12.51
2018-01-26T10:17:33.944Z,12.51
2018-01-26T10:20:02.259Z,12.48
2018-01-26T10:22:30.636Z,12.43
2018-01-26T10:24:58.971Z,12.51
2018-01-26T10:27:27.337Z,12.41
2018-01-26T10:29:55.704Z,12.74
2018-01-26T10:32:24.013Z,12.70
2018-01-26T10:34:52.344Z,12.85
2018-01-26T10:37:21.670Z,12.78
2018-01-26T10:39:50.053Z,12.68
2018-01-26T10:42:18.391Z,12.80
2018-01-26T10:44:46.725Z,12.85
2018-01-26T10:47:15.075Z,12.98
2018-01-26T10:49:43.385Z,12.94
2018-01-26T10:52:11.738Z,12.81
2018-01-26T10:54:40.094Z,12.60
2018-01-26T10:57:08.443Z,12.59
2018-01-26T10:59:37.146Z,12.57
2018-01-26T11:02:05.513Z,12.58
2018-01-26T11:04:33.895Z,12.21
2018-01-26T11:07:02.263Z,12.36
2018-01-26T11:09:30.669Z,12.53
2018-01-26T11:11:59.033Z,12.29
2018-01-26T11:14:27.417Z,12.35
2018-01-26T11:16:56.151Z,12.33
2018-01-26T11:19:24.497Z,12.52
2018-01-26T11:21:53.225Z,12.40
2018-01-26T11:24:21.555Z,12.63
2018-01-26T11:26:49.912Z,12.74
2018-01-26T11:29:18.394Z,12.84
2018-01-26T11:31:46.720Z,13.00
2018-01-26T11:34:15.818Z,13.09
2018-01-26T11:36:44.930Z,13.08
2018-01-26T11:39:13.268Z,13.05
2018-01-26T11:41:41.603Z,12.87
2018-01-26T11:44:10.376Z,12.65
2018-01-26T11:46:38.763Z,12.57
2018-01-26T11:49:07.090Z,12.68
2018-01-26T11:51:35.465Z,12.83
2018-01-26T11:54:03.804Z,12.88
2018-01-26T11:56:32.125Z,12.99
2018-01-26T11:59:00.480Z,12.76
2018-01-26T12:01:29.584Z,12.96
2018-01-26T12:03:58.707Z,12.77
2018-01-26T12:06:27.976Z,12.54
2018-01-26T12:08:56.324Z,12.56
2018-01-26T12:11:24.629Z,12.54
2018-01-26T12:13:53.022Z,12.73
2018-01-26T12:16:21.353Z,12.68
2018-01-26T12:18:49.671Z,12.72
2018-01-26T12:21:18.111Z,12.81
2018-01-26T12:23:46.458Z,12.89
2018-01-26T12:26:14.776Z,12.87
2018-01-26T12:28:43.353Z,12.87
2018-01-26T12:31:11.707Z,12.87
2018-01-26T12:33:40.012Z,12.74
2018-01-26T12:36:08.397Z,12.85
2018-01-26T12:38:36.719Z,12.50
2018-01-26T12:41:05.046Z,12.11
2018-01-26T12:43:33.445Z,12.28
2018-01-26T12:46:01.815Z,12.44
2018-01-26T12:48:30.159Z,12.50
2018-01-26T12:50:59.757Z,12.39
2018-01-26T12:53:28.116Z,12.49
2018-01-26T12:55:56.456Z,12.48
2018-01-26T12:58:24.839Z,12.42
2018-01-26T13:00:53.169Z,12.38
2018-01-26T13:03:21.503Z,12.52
2018-01-26T13:05:49.852Z,12.54
2018-01-26T13:08:18.203Z,12.52
2018-01-26T13:10:46.522Z,12.51
2018-01-26T13:13:15.272Z,12.51
2018-01-26T13:15:43.628Z,12.45
2018-01-26T13:18:11.951Z,12.62
2018-01-26T13:20:40.327Z,12.67
2018-01-26T13:23:08.663Z,12.68
2018-01-26T13:25:37.010Z,12.51
2018-01-26T13:28:05.400Z,12.38
2018-01-26T13:30:33.772Z,12.44
2018-01-26T13:33:02.093Z,12.46
2018-01-26T13:35:30.523Z,12.39
2018-01-26T13:37:58.833Z,12.22
2018-01-26T13:40:27.169Z,12.21
2018-01-26T13:42:55.537Z,12.18
2018-01-26T13:45:23.859Z,11.91
2018-01-26T13:47:52.197Z,12.01
2018-01-26T13:50:20.543Z,12.16
2018-01-26T13:52:48.879Z,12.28
2018-01-26T13:55:17.224Z,12.15
2018-01-26T13:57:46.008Z,12.13
2018-01-26T14:00:15.104Z,12.21
2018-01-26T14:02:43.482Z,12.20
2018-01-26T14:05:12.634Z,11.78
2018-01-26T14:07:40.935Z,11.92
2018-01-26T14:10:09.305Z,11.99
2018-01-26T14:12:37.628Z,12.10
2018-01-26T14:15:05.950Z,12.19
2018-01-26T14:17:34.266Z,12.26
2018-01-26T14:20:02.932Z,12.17
2018-01-26T14:22:31.257Z,12.36
2018-01-26T14:25:00.339Z,12.29
2018-01-26T14:27:29.471Z,12.39
2018-01-26T14:29:57.797Z,12.26
2018-01-26T14:32:26.935Z,12.19
2018-01-26T14:34:55.286Z,12.16
2018-01-26T14:37:24.435Z,12.08
2018-01-26T14:39:52.735Z,11.69
2018-01-26T14:42:21.403Z,12.06
2018-01-26T14:44:49.731Z,12.19
2018-01-26T14:47:18.083Z,12.16
2018-01-26T14:49:46.443Z,12.20
2018-01-26T14:52:14.885Z,12.13
2018-01-26T14:54:43.330Z,12.08
2018-01-26T14:57:11.689Z,12.17
2018-01-26T14:59:40.015Z,12.02
2018-01-26T15:02:08.394Z,12.02
2018-01-26T15:04:37.164Z,12.04
2018-01-26T15:07:06.258Z,11.97
2018-01-26T15:09:34.672Z,11.95
2018-01-26T15:12:03.021Z,11.80
2018-01-26T15:14:31.374Z,11.99
2018-01-26T15:16:59.752Z,11.99
2018-01-26T15:19:28.128Z,11.98
2018-01-26T15:21:56.467Z,12.07
2018-01-26T15:24:24.770Z,11.93
2018-01-26T15:26:53.337Z,11.98
2018-01-26T15:29:21.689Z,11.96
2018-01-26T15:31:50.794Z,11.98
2018-01-26T15:34:19.138Z,11.99
2018-01-26T15:36:47.497Z,12.03
2018-01-26T15:39:15.844Z,11.72
2018-01-26T15:41:44.457Z,11.86
2018-01-26T15:44:12.898Z,11.80
2018-01-26T15:46:41.218Z,11.93
2018-01-26T15:49:09.651Z,11.73
2018-01-26T15:51:37.983Z,11.76
2018-01-26T15:54:06.324Z,11.70
2018-01-26T15:56:34.694Z,11.73
2018-01-26T15:59:03.036Z,11.82
2018-01-26T16:01:31.359Z,11.97
2018-01-26T16:03:59.718Z,11.88
2018-01-26T16:06:28.035Z,11.64
2018-01-26T16:08:56.331Z,11.42
2018-01-26T16:11:25.189Z,11.41
2018-01-26T16:13:53.564Z,10.98
2018-01-26T16:16:21.869Z,11.15
2018-01-26T16:18:50.624Z,11.27
2018-01-26T16:21:18.954Z,11.30
2018-01-26T16:23:47.277Z,11.12
2018-01-26T16:26:15.674Z,11.14
2018-01-26T16:28:44.017Z,11.15
2018-01-26T16:31:12.365Z,11.22
2018-01-26T16:33:41.091Z,11.32
2018-01-26T16:36:09.405Z,11.37
2018-01-26T16:38:37.698Z,11.31
2018-01-26T16:41:06.028Z,11.18
2018-01-26T16:43:34.348Z,11.35
2018-01-26T16:46:02.672Z,11.38
2018-01-26T16:48:31.011Z,11.43
2018-01-26T16:50:59.470Z,11.41
2018-01-26T16:53:27.783Z,11.24
2018-01-26T16:55:57.041Z,11.38
2018-01-26T16:58:25.341Z,11.28
2018-01-26T17:00:53.673Z,11.44
2018-01-26T17:03:22.056Z,11.49
2018-01-26T17:05:50.399Z,11.42
2018-01-26T17:08:18.707Z,11.36
2018-01-26T17:10:47.798Z,11.32
2018-01-26T17:13:16.922Z,11.25
2018-01-26T17:15:45.224Z,11.28
2018-01-26T17:18:13.852Z,11.18
2018-01-26T17:20:42.979Z,11.15
2018-01-26T17:23:11.270Z,11.23
2018-01-26T17:25:39.586Z,11.31
2018-01-26T17:28:08.125Z,11.27
2018-01-26T17:30:36.464Z,11.27
2018-01-26T17:33:05.839Z,11.46
2018-01-26T17:35:34.168Z,11.47
2018-01-26T17:38:02.484Z,11.37
2018-01-26T17:40:30.990Z,11.38
2018-01-26T17:42:59.396Z,11.41
2018-01-26T17:45:28.494Z,11.36
2018-01-26T17:47:56.849Z,11.39
2018-01-26T17:50:25.187Z,11.43
2018-01-26T17:52:53.555Z,11.33
2018-01-26T17:55:21.918Z,11.18
2018-01-26T17:57:50.233Z,10.95
2018-01-26T18:00:18.564Z,10.94
2018-01-26T18:02:47.108Z,10.68
2018-01-26T18:05:15.444Z,10.74
2018-01-26T18:07:43.787Z,10.78
2018-01-26T18:10:12.462Z,10.96
2018-01-26T18:12:40.794Z,10.77
2018-01-26T18:15:09.085Z,10.54
2018-01-26T18:17:37.485Z,10.69
2018-01-26T18:20:05.818Z,10.92
2018-01-26T18:22:34.115Z,10.99
2018-01-26T18:25:02.598Z,11.09
2018-01-26T18:27:30.924Z,11.01
2018-01-26T18:30:00.043Z,11.12
2018-01-26T18:32:28.388Z,10.92
2018-01-26T18:34:56.690Z,11.07
2018-01-26T18:37:25.942Z,11.22
2018-01-26T18:39:54.303Z,11.22
2018-01-26T18:42:22.659Z,11.18
2018-01-26T18:44:51.024Z,11.25
2018-01-26T18:47:20.844Z,10.90
2018-01-26T18:49:49.929Z,11.11
2018-01-26T18:52:19.029Z,11.26
2018-01-26T18:54:48.133Z,11.18
2018-01-26T18:57:16.448Z,11.22
2018-01-26T18:59:44.782Z,11.29
2018-01-26T19:02:13.874Z,11.25
2018-01-26T19:04:42.976Z,10.93
2018-01-26T19:07:11.286Z,11.08
2018-01-26T19:09:39.704Z,11.10
2018-01-26T19:12:08.044Z,10.88
2018-01-26T19:14:36.357Z,11.00
2018-01-26T19:17:04.701Z,11.05
2018-01-26T19:19:33.032Z,10.92
2018-01-26T19:22:01.367Z,10.72
2018-01-26T19:24:30.206Z,10.62
2018-01-26T19:26:58.511Z,10.71
2018-01-26T19:29:26.864Z,10.65
2018-01-26T19:31:56.038Z,10.58
2018-01-26T19:34:24.440Z,10.36
2018-01-26T19:36:53.704Z,10.41
2018-01-26T19:39:22.088Z,10.43
2018-01-26T19:41:50.441Z,10.41
2018-01-26T19:44:19.668Z,10.44
2018-01-26T19:46:48.060Z,10.43
2018-01-26T19:49:16.430Z,10.49
2018-01-26T19:51:44.790Z,10.55
2018-01-26T19:54:13.360Z,10.49
2018-01-26T19:56:41.721Z,10.68
2018-01-26T19:59:10.066Z,10.56
2018-01-26T20:01:39.484Z,10.57
2018-01-26T20:04:07.833Z,10.22
2018-01-26T20:06:59.436Z,10.49
2018-01-26T20:09:27.780Z,10.43
2018-01-26T20:12:02.720Z,10.53
2018-01-26T20:14:31.084Z,10.54
2018-01-26T20:17:00.245Z,10.59
2018-01-26T20:19:28.622Z,10.57
2018-01-26T20:21:56.940Z,10.50
2018-01-26T20:24:26.068Z,10.56
2018-01-26T20:26:55.172Z,10.51
2018-01-26T20:29:23.502Z,10.46
2018-01-26T20:31:51.852Z,10.50
2018-01-26T20:34:20.301Z,10.55
2018-01-26T20:36:48.647Z,10.47
2018-01-26T20:39:16.966Z,10.56
2018-01-26T20:41:45.312Z,10.60
2018-01-26T20:44:14.425Z,10.47
2018-01-26T20:46:42.810Z,10.69
2018-01-26T20:49:11.166Z,10.73
2018-01-26T20:51:39.506Z,10.97
2018-01-26T20:54:07.869Z,10.96
2018-01-26T20:56:36.612Z,10.95
2018-01-26T20:59:04.922Z,10.91
2018-01-26T21:01:34.001Z,10.85
2018-01-26T21:04:02.424Z,10.81
2018-01-26T21:06:30.794Z,10.84
2018-01-26T21:08:59.176Z,10.70
2018-01-26T21:11:27.567Z,10.84
2018-01-26T21:13:55.944Z,10.78
2018-01-26T21:16:24.249Z,10.73
2018-01-26T21:18:53.473Z,10.89
2018-01-26T21:21:21.825Z,10.99
2018-01-26T21:23:50.180Z,10.93
2018-01-26T21:26:18.532Z,10.95
2018-01-26T21:28:46.899Z,10.92
2018-01-26T21:31:15.206Z,10.84
2018-01-26T21:33:43.980Z,10.75
2018-01-26T21:36:12.669Z,10.71
2018-01-26T21:38:41.076Z,10.75
2018-01-26T21:41:09.959Z,10.64
2018-01-26T21:43:38.313Z,10.68
2018-01-26T21:46:06.616Z,10.64
2018-01-26T21:48:34.982Z,10.71
2018-01-26T21:51:03.347Z,10.61
2018-01-26T21:53:31.679Z,10.68
2018-01-26T21:56:00.876Z,10.59
2018-01-26T21:58:29.990Z,10.43
2018-01-26T22:00:59.121Z,10.42
2018-01-26T22:03:27.546Z,10.48
2018-01-26T22:05:55.849Z,10.51
2018-01-26T22:08:24.184Z,10.41
2018-01-26T22:10:52.544Z,10.42
2018-01-26T22:13:20.912Z,10.51
2018-01-26T22:15:49.249Z,10.54
2018-01-26T22:18:17.601Z,10.48
2018-01-26T22:20:45.945Z,10.15
2018-01-26T22:23:14.260Z,10.25
2018-01-26T22:25:43.019Z,10.39
2018-01-26T22:28:11.377Z,10.59
2018-01-26T22:30:39.702Z,10.55
2018-01-26T22:33:08.067Z,10.67
2018-01-26T22:35:36.376Z,10.46
2018-01-26T22:38:05.478Z,10.34
2018-01-26T22:40:34.776Z,10.24
2018-01-26T22:43:03.118Z,10.37
2018-01-26T22:45:31.441Z,10.39
2018-01-26T22:47:59.853Z,10.48
2018-01-26T22:50:28.201Z,10.59
2018-01-26T22:52:56.551Z,10.68
2018-01-26T22:55:26.144Z,10.55
2018-01-26T22:57:54.467Z,10.56
2018-01-26T23:00:22.816Z,10.33
2018-01-26T23:02:51.205Z,9.98
2018-01-26T23:05:19.544Z,9.69
2018-01-26T23:07:47.855Z,9.87
2018-01-26T23:10:16.296Z,9.81
2018-01-26T23:12:44.614Z,9.91
2018-01-26T23:15:12.972Z,9.92
2018-01-26T23:17:41.312Z,10.09
2018-01-26T23:20:10.453Z,10.04
2018-01-26T23:22:38.807Z,9.97
2018-01-26T23:25:07.172Z,9.83
2018-01-26T23:27:35.517Z,9.48
2018-01-26T23:30:03.842Z,9.61
2018-01-26T23:32:32.787Z,9.78
2018-01-26T23:35:01.184Z,9.77
2018-01-26T23:37:30.260Z,9.87
2018-01-26T23:39:58.608Z,9.85
2018-01-26T23:42:26.910Z,9.77
2018-01-26T23:44:55.257Z,10.03
2018-01-26T23:47:23.609Z,10.10
2018-01-26T23:49:51.952Z,9.94
2018-01-26T23:52:20.288Z,9.99
2018-01-26T23:54:49.137Z,10.08
2018-01-26T23:57:17.457Z,9.84
2018-01-26T23:59:45.832Z,9.52
